sensor_id;sensor_type;location;lat;lon;timestamp;temperature;humidity
55064;DHT22;40963;52.168;21.296;2022-09-09T00:04:27;12.20;99.90
55064;DHT22;40963;52.168;21.296;2022-09-09T00:09:27;12.10;99.90
55064;DHT22;40963;52.168;21.296;2022-09-09T00:12:16;12.10;99.90
55064;DHT22;40963;52.168;21.296;2022-09-09T00:15:00;12.10;99.90
55064;DHT22;40963;52.168;21.296;2022-09-09T00:17:43;12.00;99.90
55064;DHT22;40963;52.168;21.296;2022-09-09T00:21:03;12.00;99.90
55064;DHT22;40963;52.168;21.296;2022-09-09T00:23:17;12.00;99.90
55064;DHT22;40963;52.168;21.296;2022-09-09T00:26:14;11.90;99.90
55064;DHT22;40963;52.168;21.296;2022-09-09T00:31:20;11.90;99.90
55064;DHT22;40963;52.168;21.296;2022-09-09T00:33:49;11.90;99.90
55064;DHT22;40963;52.168;21.296;2022-09-09T00:36:18;11.90;99.90
55064;DHT22;40963;52.168;21.296;2022-09-09T00:38:56;11.80;99.90
55064;DHT22;40963;52.168;21.296;2022-09-09T00:44:32;11.80;99.90
55064;DHT22;40963;52.168;21.296;2022-09-09T00:50:09;11.70;99.90
55064;DHT22;40963;52.168;21.296;2022-09-09T00:52:50;11.70;99.90
55064;DHT22;40963;52.168;21.296;2022-09-09T00:55:31;11.70;99.90
55064;DHT22;40963;52.168;21.296;2022-09-09T00:57:59;11.70;99.90
55064;DHT22;40963;52.168;21.296;2022-09-09T01:00:26;11.70;99.90
55064;DHT22;40963;52.168;21.296;2022-09-09T01:03:21;11.70;99.90
55064;DHT22;40963;52.168;21.296;2022-09-09T01:10:51;11.70;99.90
55064;DHT22;40963;52.168;21.296;2022-09-09T01:13:27;11.70;99.90
55064;DHT22;40963;52.168;21.296;2022-09-09T01:15:58;11.60;99.90
55064;DHT22;40963;52.168;21.296;2022-09-09T01:18:29;11.70;99.90
55064;DHT22;40963;52.168;21.296;2022-09-09T01:24:29;11.70;99.90
55064;DHT22;40963;52.168;21.296;2022-09-09T01:26:58;11.70;99.90
55064;DHT22;40963;52.168;21.296;2022-09-09T01:29:26;11.70;99.90
55064;DHT22;40963;52.168;21.296;2022-09-09T01:31:53;11.70;99.90
55064;DHT22;40963;52.168;21.296;2022-09-09T01:34:20;11.70;99.90
55064;DHT22;40963;52.168;21.296;2022-09-09T01:37:02;11.70;99.90
55064;DHT22;40963;52.168;21.296;2022-09-09T01:39:30;11.70;99.90
55064;DHT22;40963;52.168;21.296;2022-09-09T01:41:57;11.70;99.90
55064;DHT22;40963;52.168;21.296;2022-09-09T01:44:24;11.60;99.90
55064;DHT22;40963;52.168;21.296;2022-09-09T01:46:51;11.60;99.90
55064;DHT22;40963;52.168;21.296;2022-09-09T01:49:17;11.60;99.90
55064;DHT22;40963;52.168;21.296;2022-09-09T01:51:43;11.60;99.90
55064;DHT22;40963;52.168;21.296;2022-09-09T01:54:11;11.60;99.90
55064;DHT22;40963;52.168;21.296;2022-09-09T01:59:18;11.60;99.90
55064;DHT22;40963;52.168;21.296;2022-09-09T02:04:44;11.60;99.90
55064;DHT22;40963;52.168;21.296;2022-09-09T02:07:40;11.70;99.90
55064;DHT22;40963;52.168;21.296;2022-09-09T02:10:16;11.60;99.90
55064;DHT22;40963;52.168;21.296;2022-09-09T02:12:53;11.60;99.90
55064;DHT22;40963;52.168;21.296;2022-09-09T02:15:30;11.60;99.90
55064;DHT22;40963;52.168;21.296;2022-09-09T02:17:58;11.60;99.90
55064;DHT22;40963;52.168;21.296;2022-09-09T02:20:27;11.60;99.90
55064;DHT22;40963;52.168;21.296;2022-09-09T02:22:56;11.70;99.90
55064;DHT22;40963;52.168;21.296;2022-09-09T02:25:24;11.60;99.90
55064;DHT22;40963;52.168;21.296;2022-09-09T02:27:51;11.60;99.90
55064;DHT22;40963;52.168;21.296;2022-09-09T02:30:18;11.60;99.90
55064;DHT22;40963;52.168;21.296;2022-09-09T02:32:46;11.70;99.90
55064;DHT22;40963;52.168;21.296;2022-09-09T02:35:16;11.70;99.90
55064;DHT22;40963;52.168;21.296;2022-09-09T02:37:44;11.70;99.90
55064;DHT22;40963;52.168;21.296;2022-09-09T02:40:12;11.70;99.90
55064;DHT22;40963;52.168;21.296;2022-09-09T02:42:41;11.70;99.90
55064;DHT22;40963;52.168;21.296;2022-09-09T02:45:10;11.70;99.90
55064;DHT22;40963;52.168;21.296;2022-09-09T02:48:23;11.70;99.90
55064;DHT22;40963;52.168;21.296;2022-09-09T02:50:34;11.70;99.90
55064;DHT22;40963;52.168;21.296;2022-09-09T02:53:19;11.70;99.90
55064;DHT22;40963;52.168;21.296;2022-09-09T02:55:47;11.70;99.90
55064;DHT22;40963;52.168;21.296;2022-09-09T02:58:16;11.70;99.90
55064;DHT22;40963;52.168;21.296;2022-09-09T03:00:44;11.70;99.90
55064;DHT22;40963;52.168;21.296;2022-09-09T03:03:10;11.70;99.90
55064;DHT22;40963;52.168;21.296;2022-09-09T03:05:36;11.70;99.90
55064;DHT22;40963;52.168;21.296;2022-09-09T03:08:03;11.80;99.90
55064;DHT22;40963;52.168;21.296;2022-09-09T03:10:29;11.80;99.90
55064;DHT22;40963;52.168;21.296;2022-09-09T03:12:55;11.80;99.90
55064;DHT22;40963;52.168;21.296;2022-09-09T03:15:21;11.80;99.90
55064;DHT22;40963;52.168;21.296;2022-09-09T03:17:47;11.80;99.90
55064;DHT22;40963;52.168;21.296;2022-09-09T03:20:12;11.80;99.90
55064;DHT22;40963;52.168;21.296;2022-09-09T03:22:38;11.80;99.90
55064;DHT22;40963;52.168;21.296;2022-09-09T03:25:04;11.90;99.90
55064;DHT22;40963;52.168;21.296;2022-09-09T03:27:31;11.80;99.90
55064;DHT22;40963;52.168;21.296;2022-09-09T03:29:57;11.80;99.90
55064;DHT22;40963;52.168;21.296;2022-09-09T03:32:22;11.90;99.90
55064;DHT22;40963;52.168;21.296;2022-09-09T03:34:49;11.90;99.90
55064;DHT22;40963;52.168;21.296;2022-09-09T03:37:16;11.90;99.90
55064;DHT22;40963;52.168;21.296;2022-09-09T03:39:43;11.90;99.90
55064;DHT22;40963;52.168;21.296;2022-09-09T03:42:09;11.90;99.90
55064;DHT22;40963;52.168;21.296;2022-09-09T03:44:35;11.90;99.90
55064;DHT22;40963;52.168;21.296;2022-09-09T03:47:01;11.80;99.90
55064;DHT22;40963;52.168;21.296;2022-09-09T03:49:27;11.90;99.90
55064;DHT22;40963;52.168;21.296;2022-09-09T03:51:57;11.90;99.90
55064;DHT22;40963;52.168;21.296;2022-09-09T03:54:24;11.90;99.90
55064;DHT22;40963;52.168;21.296;2022-09-09T03:56:50;11.90;99.90
55064;DHT22;40963;52.168;21.296;2022-09-09T03:59:16;11.90;99.90
55064;DHT22;40963;52.168;21.296;2022-09-09T04:01:42;12.00;99.90
55064;DHT22;40963;52.168;21.296;2022-09-09T04:04:08;11.90;99.90
55064;DHT22;40963;52.168;21.296;2022-09-09T04:06:34;12.00;99.90
55064;DHT22;40963;52.168;21.296;2022-09-09T04:09:00;12.00;99.90
55064;DHT22;40963;52.168;21.296;2022-09-09T04:11:28;12.00;99.90
55064;DHT22;40963;52.168;21.296;2022-09-09T04:13:53;12.00;99.90
55064;DHT22;40963;52.168;21.296;2022-09-09T04:16:19;12.00;99.90
55064;DHT22;40963;52.168;21.296;2022-09-09T04:18:46;12.00;99.90
55064;DHT22;40963;52.168;21.296;2022-09-09T04:21:12;12.00;99.90
55064;DHT22;40963;52.168;21.296;2022-09-09T04:23:38;12.00;99.90
55064;DHT22;40963;52.168;21.296;2022-09-09T04:26:04;12.00;99.90
55064;DHT22;40963;52.168;21.296;2022-09-09T04:28:32;12.00;99.90
55064;DHT22;40963;52.168;21.296;2022-09-09T04:31:08;12.00;99.90
55064;DHT22;40963;52.168;21.296;2022-09-09T04:33:35;12.00;99.90
55064;DHT22;40963;52.168;21.296;2022-09-09T04:36:00;12.00;99.90
55064;DHT22;40963;52.168;21.296;2022-09-09T04:38:26;12.00;99.90
55064;DHT22;40963;52.168;21.296;2022-09-09T04:40:52;12.00;99.90
55064;DHT22;40963;52.168;21.296;2022-09-09T04:43:20;12.00;99.90
55064;DHT22;40963;52.168;21.296;2022-09-09T04:45:50;12.00;99.90
55064;DHT22;40963;52.168;21.296;2022-09-09T04:48:17;12.10;99.90
55064;DHT22;40963;52.168;21.296;2022-09-09T04:50:43;12.00;99.90
55064;DHT22;40963;52.168;21.296;2022-09-09T04:53:09;12.10;99.90
55064;DHT22;40963;52.168;21.296;2022-09-09T04:55:35;12.10;99.90
55064;DHT22;40963;52.168;21.296;2022-09-09T04:58:05;12.10;99.90
55064;DHT22;40963;52.168;21.296;2022-09-09T05:00:31;12.10;99.90
55064;DHT22;40963;52.168;21.296;2022-09-09T05:02:57;12.10;99.90
55064;DHT22;40963;52.168;21.296;2022-09-09T05:05:23;12.10;99.90
55064;DHT22;40963;52.168;21.296;2022-09-09T05:07:48;12.10;99.90
55064;DHT22;40963;52.168;21.296;2022-09-09T05:10:14;12.10;99.90
55064;DHT22;40963;52.168;21.296;2022-09-09T05:12:42;12.10;99.90
55064;DHT22;40963;52.168;21.296;2022-09-09T05:15:08;12.10;99.90
55064;DHT22;40963;52.168;21.296;2022-09-09T05:17:34;12.10;99.90
55064;DHT22;40963;52.168;21.296;2022-09-09T05:19:59;12.10;99.90
55064;DHT22;40963;52.168;21.296;2022-09-09T05:22:25;12.10;99.90
55064;DHT22;40963;52.168;21.296;2022-09-09T05:24:51;12.10;99.90
55064;DHT22;40963;52.168;21.296;2022-09-09T05:27:20;12.10;99.90
55064;DHT22;40963;52.168;21.296;2022-09-09T05:29:46;12.20;99.90
55064;DHT22;40963;52.168;21.296;2022-09-09T05:32:11;12.10;99.90
55064;DHT22;40963;52.168;21.296;2022-09-09T05:34:39;12.10;99.90
55064;DHT22;40963;52.168;21.296;2022-09-09T05:37:04;12.20;99.90
55064;DHT22;40963;52.168;21.296;2022-09-09T05:39:30;12.10;99.90
55064;DHT22;40963;52.168;21.296;2022-09-09T05:41:56;12.10;99.90
55064;DHT22;40963;52.168;21.296;2022-09-09T05:44:22;12.10;99.90
55064;DHT22;40963;52.168;21.296;2022-09-09T05:46:50;12.20;99.90
55064;DHT22;40963;52.168;21.296;2022-09-09T05:49:16;12.10;99.90
55064;DHT22;40963;52.168;21.296;2022-09-09T05:51:42;12.10;99.90
55064;DHT22;40963;52.168;21.296;2022-09-09T05:54:08;12.20;99.90
55064;DHT22;40963;52.168;21.296;2022-09-09T05:56:34;12.20;99.90
55064;DHT22;40963;52.168;21.296;2022-09-09T05:59:00;12.20;99.90
55064;DHT22;40963;52.168;21.296;2022-09-09T06:01:29;12.20;99.90
55064;DHT22;40963;52.168;21.296;2022-09-09T06:03:55;12.20;99.90
55064;DHT22;40963;52.168;21.296;2022-09-09T06:06:23;12.30;99.90
55064;DHT22;40963;52.168;21.296;2022-09-09T06:08:54;12.20;99.90
55064;DHT22;40963;52.168;21.296;2022-09-09T06:11:23;12.20;99.90
55064;DHT22;40963;52.168;21.296;2022-09-09T06:13:50;12.30;99.90
55064;DHT22;40963;52.168;21.296;2022-09-09T06:16:23;12.30;99.90
55064;DHT22;40963;52.168;21.296;2022-09-09T06:18:49;12.30;99.90
55064;DHT22;40963;52.168;21.296;2022-09-09T06:21:18;12.30;99.90
55064;DHT22;40963;52.168;21.296;2022-09-09T06:23:44;12.30;99.90
55064;DHT22;40963;52.168;21.296;2022-09-09T06:26:18;12.30;99.90
55064;DHT22;40963;52.168;21.296;2022-09-09T06:28:45;12.30;99.90
55064;DHT22;40963;52.168;21.296;2022-09-09T06:31:12;12.30;99.90
55064;DHT22;40963;52.168;21.296;2022-09-09T06:33:40;12.30;99.90
55064;DHT22;40963;52.168;21.296;2022-09-09T06:36:11;12.30;99.90
55064;DHT22;40963;52.168;21.296;2022-09-09T06:38:38;12.40;99.90
55064;DHT22;40963;52.168;21.296;2022-09-09T06:41:04;12.40;99.90
55064;DHT22;40963;52.168;21.296;2022-09-09T06:43:31;12.40;99.90
55064;DHT22;40963;52.168;21.296;2022-09-09T06:45:59;12.40;99.90
55064;DHT22;40963;52.168;21.296;2022-09-09T06:48:26;12.40;99.90
55064;DHT22;40963;52.168;21.296;2022-09-09T06:51:04;12.40;99.90
55064;DHT22;40963;52.168;21.296;2022-09-09T06:53:30;12.40;99.90
55064;DHT22;40963;52.168;21.296;2022-09-09T06:55:56;12.40;99.90
55064;DHT22;40963;52.168;21.296;2022-09-09T06:58:22;12.40;99.90
55064;DHT22;40963;52.168;21.296;2022-09-09T07:00:48;12.40;99.90
55064;DHT22;40963;52.168;21.296;2022-09-09T07:03:13;12.40;99.90
55064;DHT22;40963;52.168;21.296;2022-09-09T07:05:39;12.40;99.90
55064;DHT22;40963;52.168;21.296;2022-09-09T07:08:05;12.40;99.90
55064;DHT22;40963;52.168;21.296;2022-09-09T07:10:31;12.40;99.90
55064;DHT22;40963;52.168;21.296;2022-09-09T07:12:57;12.40;99.90
55064;DHT22;40963;52.168;21.296;2022-09-09T07:15:22;12.40;99.90
55064;DHT22;40963;52.168;21.296;2022-09-09T07:17:48;12.50;99.90
55064;DHT22;40963;52.168;21.296;2022-09-09T07:20:14;12.40;99.90
55064;DHT22;40963;52.168;21.296;2022-09-09T07:22:41;12.50;99.90
55064;DHT22;40963;52.168;21.296;2022-09-09T07:25:07;12.50;99.90
55064;DHT22;40963;52.168;21.296;2022-09-09T07:27:33;12.50;99.90
55064;DHT22;40963;52.168;21.296;2022-09-09T07:29:58;12.50;99.90
55064;DHT22;40963;52.168;21.296;2022-09-09T07:32:25;12.50;99.90
55064;DHT22;40963;52.168;21.296;2022-09-09T07:34:55;12.50;99.90
55064;DHT22;40963;52.168;21.296;2022-09-09T07:37:23;12.50;99.90
55064;DHT22;40963;52.168;21.296;2022-09-09T07:39:49;12.50;99.90
55064;DHT22;40963;52.168;21.296;2022-09-09T07:42:16;12.60;99.90
55064;DHT22;40963;52.168;21.296;2022-09-09T07:44:41;12.60;99.90
55064;DHT22;40963;52.168;21.296;2022-09-09T07:47:07;12.60;99.90
55064;DHT22;40963;52.168;21.296;2022-09-09T07:49:33;12.60;99.90
55064;DHT22;40963;52.168;21.296;2022-09-09T07:52:00;12.60;99.90
55064;DHT22;40963;52.168;21.296;2022-09-09T07:54:26;12.70;99.90
55064;DHT22;40963;52.168;21.296;2022-09-09T07:56:52;12.70;99.90
55064;DHT22;40963;52.168;21.296;2022-09-09T07:59:18;12.70;99.90
55064;DHT22;40963;52.168;21.296;2022-09-09T08:01:49;12.70;99.90
55064;DHT22;40963;52.168;21.296;2022-09-09T08:04:20;12.70;99.90
55064;DHT22;40963;52.168;21.296;2022-09-09T08:06:58;12.70;99.90
55064;DHT22;40963;52.168;21.296;2022-09-09T08:09:26;12.70;99.90
55064;DHT22;40963;52.168;21.296;2022-09-09T08:11:55;12.70;99.90
55064;DHT22;40963;52.168;21.296;2022-09-09T08:14:22;12.70;99.90
55064;DHT22;40963;52.168;21.296;2022-09-09T08:16:49;12.80;99.90
55064;DHT22;40963;52.168;21.296;2022-09-09T08:19:16;12.70;99.90
55064;DHT22;40963;52.168;21.296;2022-09-09T08:21:43;12.80;99.90
55064;DHT22;40963;52.168;21.296;2022-09-09T08:24:10;12.80;99.90
55064;DHT22;40963;52.168;21.296;2022-09-09T08:26:39;12.80;99.90
55064;DHT22;40963;52.168;21.296;2022-09-09T08:29:06;12.80;99.90
55064;DHT22;40963;52.168;21.296;2022-09-09T08:31:38;12.90;99.90
55064;DHT22;40963;52.168;21.296;2022-09-09T08:34:05;12.90;99.90
55064;DHT22;40963;52.168;21.296;2022-09-09T08:36:35;12.90;99.90
55064;DHT22;40963;52.168;21.296;2022-09-09T08:39:02;12.90;99.90
55064;DHT22;40963;52.168;21.296;2022-09-09T08:47:27;13.00;99.90
55064;DHT22;40963;52.168;21.296;2022-09-09T08:58:16;13.00;99.90
55064;DHT22;40963;52.168;21.296;2022-09-09T09:06:54;13.00;99.90
55064;DHT22;40963;52.168;21.296;2022-09-09T09:11:58;13.00;99.90
55064;DHT22;40963;52.168;21.296;2022-09-09T09:14:30;13.10;99.90
55064;DHT22;40963;52.168;21.296;2022-09-09T09:16:57;13.10;99.90
55064;DHT22;40963;52.168;21.296;2022-09-09T09:19:24;13.10;99.90
55064;DHT22;40963;52.168;21.296;2022-09-09T09:24:56;13.10;99.90
55064;DHT22;40963;52.168;21.296;2022-09-09T09:28:02;13.10;99.90
55064;DHT22;40963;52.168;21.296;2022-09-09T09:36:02;13.10;99.90
55064;DHT22;40963;52.168;21.296;2022-09-09T09:38:29;13.10;99.90
55064;DHT22;40963;52.168;21.296;2022-09-09T09:40:57;13.20;99.90
55064;DHT22;40963;52.168;21.296;2022-09-09T09:43:34;13.20;99.90
55064;DHT22;40963;52.168;21.296;2022-09-09T09:46:03;13.10;99.90
55064;DHT22;40963;52.168;21.296;2022-09-09T09:48:29;13.20;99.90
55064;DHT22;40963;52.168;21.296;2022-09-09T09:51:18;13.20;99.90
55064;DHT22;40963;52.168;21.296;2022-09-09T09:53:45;13.20;99.90
55064;DHT22;40963;52.168;21.296;2022-09-09T09:56:13;13.30;99.90
55064;DHT22;40963;52.168;21.296;2022-09-09T10:01:24;13.30;99.90
55064;DHT22;40963;52.168;21.296;2022-09-09T10:04:03;13.30;99.90
55064;DHT22;40963;52.168;21.296;2022-09-09T10:06:38;13.40;99.90
55064;DHT22;40963;52.168;21.296;2022-09-09T10:09:27;13.40;99.90
55064;DHT22;40963;52.168;21.296;2022-09-09T10:26:31;13.60;99.90
55064;DHT22;40963;52.168;21.296;2022-09-09T10:40:34;13.70;99.90
55064;DHT22;40963;52.168;21.296;2022-09-09T10:57:05;13.70;99.90
55064;DHT22;40963;52.168;21.296;2022-09-09T10:59:38;13.70;99.90
55064;DHT22;40963;52.168;21.296;2022-09-09T11:02:19;13.70;99.90
55064;DHT22;40963;52.168;21.296;2022-09-09T11:04:53;13.70;99.90
55064;DHT22;40963;52.168;21.296;2022-09-09T11:10:04;13.70;99.90
55064;DHT22;40963;52.168;21.296;2022-09-09T11:12:36;13.70;99.90
55064;DHT22;40963;52.168;21.296;2022-09-09T11:15:08;13.70;99.90
55064;DHT22;40963;52.168;21.296;2022-09-09T11:17:44;13.80;99.90
55064;DHT22;40963;52.168;21.296;2022-09-09T11:20:13;13.80;99.90
55064;DHT22;40963;52.168;21.296;2022-09-09T11:22:52;13.80;99.90
55064;DHT22;40963;52.168;21.296;2022-09-09T11:25:48;13.80;99.90
55064;DHT22;40963;52.168;21.296;2022-09-09T11:33:51;13.80;99.90
55064;DHT22;40963;52.168;21.296;2022-09-09T11:41:46;13.90;99.90
55064;DHT22;40963;52.168;21.296;2022-09-09T11:44:18;14.00;99.90
55064;DHT22;40963;52.168;21.296;2022-09-09T11:46:49;14.00;99.90
55064;DHT22;40963;52.168;21.296;2022-09-09T11:49:39;14.00;99.90
55064;DHT22;40963;52.168;21.296;2022-09-09T11:52:24;14.00;99.90
55064;DHT22;40963;52.168;21.296;2022-09-09T11:54:54;14.00;99.90
55064;DHT22;40963;52.168;21.296;2022-09-09T11:57:40;14.00;99.90
55064;DHT22;40963;52.168;21.296;2022-09-09T12:00:06;13.90;99.90
55064;DHT22;40963;52.168;21.296;2022-09-09T12:02:33;14.00;99.90
55064;DHT22;40963;52.168;21.296;2022-09-09T12:05:06;14.00;99.90
55064;DHT22;40963;52.168;21.296;2022-09-09T12:08:03;14.00;99.90
55064;DHT22;40963;52.168;21.296;2022-09-09T12:10:38;13.90;99.90
55064;DHT22;40963;52.168;21.296;2022-09-09T12:13:20;14.00;99.90
55064;DHT22;40963;52.168;21.296;2022-09-09T12:15:59;14.00;99.90
55064;DHT22;40963;52.168;21.296;2022-09-09T12:18:33;14.00;99.90
55064;DHT22;40963;52.168;21.296;2022-09-09T12:26:49;14.00;99.90
55064;DHT22;40963;52.168;21.296;2022-09-09T12:31:54;14.00;99.90
55064;DHT22;40963;52.168;21.296;2022-09-09T12:34:40;14.00;99.90
55064;DHT22;40963;52.168;21.296;2022-09-09T12:39:53;14.00;99.90
55064;DHT22;40963;52.168;21.296;2022-09-09T12:42:22;14.00;99.90
55064;DHT22;40963;52.168;21.296;2022-09-09T12:44:56;14.00;99.90
55064;DHT22;40963;52.168;21.296;2022-09-09T12:47:36;14.00;99.90
55064;DHT22;40963;52.168;21.296;2022-09-09T12:50:15;14.00;99.90
55064;DHT22;40963;52.168;21.296;2022-09-09T12:52:42;14.00;99.90
55064;DHT22;40963;52.168;21.296;2022-09-09T12:55:20;14.00;99.90
55064;DHT22;40963;52.168;21.296;2022-09-09T12:57:47;14.00;99.90
55064;DHT22;40963;52.168;21.296;2022-09-09T13:00:21;14.00;99.90
55064;DHT22;40963;52.168;21.296;2022-09-09T13:02:56;14.10;99.90
55064;DHT22;40963;52.168;21.296;2022-09-09T13:05:28;14.10;99.90
55064;DHT22;40963;52.168;21.296;2022-09-09T13:08:08;14.10;99.90
55064;DHT22;40963;52.168;21.296;2022-09-09T13:10:46;14.10;99.90
55064;DHT22;40963;52.168;21.296;2022-09-09T13:13:24;14.10;99.90
55064;DHT22;40963;52.168;21.296;2022-09-09T13:15:53;14.10;99.90
55064;DHT22;40963;52.168;21.296;2022-09-09T13:18:23;14.20;99.90
55064;DHT22;40963;52.168;21.296;2022-09-09T13:20:50;14.20;99.90
55064;DHT22;40963;52.168;21.296;2022-09-09T13:23:18;14.10;99.90
55064;DHT22;40963;52.168;21.296;2022-09-09T13:25:56;14.20;99.90
55064;DHT22;40963;52.168;21.296;2022-09-09T13:28:27;14.20;99.90
55064;DHT22;40963;52.168;21.296;2022-09-09T13:31:01;14.20;99.90
55064;DHT22;40963;52.168;21.296;2022-09-09T13:33:37;14.20;99.90
55064;DHT22;40963;52.168;21.296;2022-09-09T13:36:08;14.20;99.90
55064;DHT22;40963;52.168;21.296;2022-09-09T13:38:58;14.20;99.90
55064;DHT22;40963;52.168;21.296;2022-09-09T13:41:32;14.20;99.90
55064;DHT22;40963;52.168;21.296;2022-09-09T13:43:59;14.20;99.90
55064;DHT22;40963;52.168;21.296;2022-09-09T13:46:41;14.20;99.90
55064;DHT22;40963;52.168;21.296;2022-09-09T13:51:47;14.30;99.90
55064;DHT22;40963;52.168;21.296;2022-09-09T13:54:16;14.30;99.90
55064;DHT22;40963;52.168;21.296;2022-09-09T13:56:47;14.30;99.90
55064;DHT22;40963;52.168;21.296;2022-09-09T13:59:19;14.20;99.90
55064;DHT22;40963;52.168;21.296;2022-09-09T14:01:45;14.20;99.90
55064;DHT22;40963;52.168;21.296;2022-09-09T14:04:11;14.30;99.90
55064;DHT22;40963;52.168;21.296;2022-09-09T14:06:38;14.20;99.90
55064;DHT22;40963;52.168;21.296;2022-09-09T14:09:11;14.20;99.90
55064;DHT22;40963;52.168;21.296;2022-09-09T14:11:37;14.20;99.90
55064;DHT22;40963;52.168;21.296;2022-09-09T14:14:03;14.20;99.90
55064;DHT22;40963;52.168;21.296;2022-09-09T14:16:28;14.20;99.90
55064;DHT22;40963;52.168;21.296;2022-09-09T14:18:54;14.20;99.90
55064;DHT22;40963;52.168;21.296;2022-09-09T14:21:24;14.20;99.90
55064;DHT22;40963;52.168;21.296;2022-09-09T14:23:50;14.20;99.90
55064;DHT22;40963;52.168;21.296;2022-09-09T14:26:16;14.20;99.90
55064;DHT22;40963;52.168;21.296;2022-09-09T14:28:42;14.20;99.90
55064;DHT22;40963;52.168;21.296;2022-09-09T14:31:07;14.20;99.90
55064;DHT22;40963;52.168;21.296;2022-09-09T14:33:33;14.20;99.90
55064;DHT22;40963;52.168;21.296;2022-09-09T14:36:01;14.20;99.90
55064;DHT22;40963;52.168;21.296;2022-09-09T14:38:31;14.20;99.90
55064;DHT22;40963;52.168;21.296;2022-09-09T14:40:59;14.20;99.90
55064;DHT22;40963;52.168;21.296;2022-09-09T14:43:25;14.20;99.90
55064;DHT22;40963;52.168;21.296;2022-09-09T14:45:52;14.20;99.90
55064;DHT22;40963;52.168;21.296;2022-09-09T14:48:18;14.20;99.90
55064;DHT22;40963;52.168;21.296;2022-09-09T14:50:44;14.20;99.90
55064;DHT22;40963;52.168;21.296;2022-09-09T14:53:10;14.20;99.90
55064;DHT22;40963;52.168;21.296;2022-09-09T14:55:36;14.20;99.90
55064;DHT22;40963;52.168;21.296;2022-09-09T14:58:03;14.20;99.90
55064;DHT22;40963;52.168;21.296;2022-09-09T15:00:29;14.20;99.90
55064;DHT22;40963;52.168;21.296;2022-09-09T15:02:55;14.20;99.90
55064;DHT22;40963;52.168;21.296;2022-09-09T15:05:21;14.20;99.90
55064;DHT22;40963;52.168;21.296;2022-09-09T15:07:47;14.20;99.90
55064;DHT22;40963;52.168;21.296;2022-09-09T15:10:14;14.20;99.90
55064;DHT22;40963;52.168;21.296;2022-09-09T15:12:39;14.20;99.90
55064;DHT22;40963;52.168;21.296;2022-09-09T15:15:07;14.30;99.90
55064;DHT22;40963;52.168;21.296;2022-09-09T15:17:33;14.30;99.90
55064;DHT22;40963;52.168;21.296;2022-09-09T15:19:58;14.30;99.90
55064;DHT22;40963;52.168;21.296;2022-09-09T15:22:24;14.20;99.90
55064;DHT22;40963;52.168;21.296;2022-09-09T15:24:50;14.30;99.90
55064;DHT22;40963;52.168;21.296;2022-09-09T15:27:16;14.30;99.90
55064;DHT22;40963;52.168;21.296;2022-09-09T15:29:42;14.30;99.90
55064;DHT22;40963;52.168;21.296;2022-09-09T15:32:09;14.30;99.90
55064;DHT22;40963;52.168;21.296;2022-09-09T15:34:35;14.30;99.90
55064;DHT22;40963;52.168;21.296;2022-09-09T15:37:00;14.30;99.90
55064;DHT22;40963;52.168;21.296;2022-09-09T15:39:26;14.20;99.90
55064;DHT22;40963;52.168;21.296;2022-09-09T15:41:52;14.30;99.90
55064;DHT22;40963;52.168;21.296;2022-09-09T15:44:18;14.20;99.90
55064;DHT22;40963;52.168;21.296;2022-09-09T15:46:48;14.20;99.90
55064;DHT22;40963;52.168;21.296;2022-09-09T15:49:19;14.20;99.90
55064;DHT22;40963;52.168;21.296;2022-09-09T15:51:54;14.30;99.90
55064;DHT22;40963;52.168;21.296;2022-09-09T15:54:22;14.20;99.90
55064;DHT22;40963;52.168;21.296;2022-09-09T15:56:56;14.30;99.90
55064;DHT22;40963;52.168;21.296;2022-09-09T15:59:23;14.20;99.90
55064;DHT22;40963;52.168;21.296;2022-09-09T16:01:49;14.20;99.90
55064;DHT22;40963;52.168;21.296;2022-09-09T16:04:20;14.20;99.90
55064;DHT22;40963;52.168;21.296;2022-09-09T16:06:52;14.20;99.90
55064;DHT22;40963;52.168;21.296;2022-09-09T16:09:19;14.20;99.90
55064;DHT22;40963;52.168;21.296;2022-09-09T16:11:44;14.20;99.90
55064;DHT22;40963;52.168;21.296;2022-09-09T16:14:11;14.20;99.90
55064;DHT22;40963;52.168;21.296;2022-09-09T16:16:36;14.10;99.90
55064;DHT22;40963;52.168;21.296;2022-09-09T16:19:08;14.10;99.90
55064;DHT22;40963;52.168;21.296;2022-09-09T16:21:37;14.20;99.90
55064;DHT22;40963;52.168;21.296;2022-09-09T16:24:04;14.10;99.90
55064;DHT22;40963;52.168;21.296;2022-09-09T16:26:32;14.20;99.90
55064;DHT22;40963;52.168;21.296;2022-09-09T16:28:59;14.10;99.90
55064;DHT22;40963;52.168;21.296;2022-09-09T16:31:26;14.10;99.90
55064;DHT22;40963;52.168;21.296;2022-09-09T16:33:53;14.10;99.90
55064;DHT22;40963;52.168;21.296;2022-09-09T16:36:26;14.10;99.90
55064;DHT22;40963;52.168;21.296;2022-09-09T16:38:56;14.10;99.90
55064;DHT22;40963;52.168;21.296;2022-09-09T16:41:23;14.10;99.90
55064;DHT22;40963;52.168;21.296;2022-09-09T16:43:59;14.10;99.90
55064;DHT22;40963;52.168;21.296;2022-09-09T16:46:26;14.10;99.90
55064;DHT22;40963;52.168;21.296;2022-09-09T16:48:53;14.10;99.90
55064;DHT22;40963;52.168;21.296;2022-09-09T16:51:26;14.10;99.90
55064;DHT22;40963;52.168;21.296;2022-09-09T16:53:53;14.10;99.90
55064;DHT22;40963;52.168;21.296;2022-09-09T16:56:21;14.00;99.90
55064;DHT22;40963;52.168;21.296;2022-09-09T16:58:55;14.10;99.90
55064;DHT22;40963;52.168;21.296;2022-09-09T17:01:25;14.10;99.90
55064;DHT22;40963;52.168;21.296;2022-09-09T17:03:59;14.10;99.90
55064;DHT22;40963;52.168;21.296;2022-09-09T17:06:26;14.10;99.90
55064;DHT22;40963;52.168;21.296;2022-09-09T17:08:58;14.00;99.90
55064;DHT22;40963;52.168;21.296;2022-09-09T17:11:25;14.00;99.90
55064;DHT22;40963;52.168;21.296;2022-09-09T17:13:51;14.00;99.90
55064;DHT22;40963;52.168;21.296;2022-09-09T17:16:19;14.00;99.90
55064;DHT22;40963;52.168;21.296;2022-09-09T17:18:50;14.00;99.90
55064;DHT22;40963;52.168;21.296;2022-09-09T17:21:19;14.00;99.90
55064;DHT22;40963;52.168;21.296;2022-09-09T17:23:46;14.00;99.90
55064;DHT22;40963;52.168;21.296;2022-09-09T17:26:14;14.00;99.90
55064;DHT22;40963;52.168;21.296;2022-09-09T17:28:41;14.00;99.90
55064;DHT22;40963;52.168;21.296;2022-09-09T17:31:09;14.00;99.90
55064;DHT22;40963;52.168;21.296;2022-09-09T17:33:40;14.00;99.90
55064;DHT22;40963;52.168;21.296;2022-09-09T17:36:09;14.00;99.90
55064;DHT22;40963;52.168;21.296;2022-09-09T17:38:35;13.90;99.90
55064;DHT22;40963;52.168;21.296;2022-09-09T17:43:41;13.90;99.90